createdAt,value
2022-08-27T00:01:27.958Z,17.00
2022-08-27T00:02:38.027Z,17.24
2022-08-27T00:03:56.531Z,17.35
2022-08-27T00:05:05.520Z,16.85
2022-08-27T00:06:17.204Z,16.75
2022-08-27T00:07:25.971Z,16.55
2022-08-27T00:08:35.167Z,16.59
2022-08-27T00:09:44.905Z,16.62
2022-08-27T00:10:56.755Z,16.77
2022-08-27T00:12:06.381Z,16.60
2022-08-27T00:13:14.954Z,16.19
2022-08-27T00:14:22.981Z,16.04
2022-08-27T00:15:31.380Z,15.67
2022-08-27T00:16:39.480Z,16.06
2022-08-27T00:17:48.546Z,16.37
2022-08-27T00:18:57.436Z,16.37
2022-08-27T00:20:05.638Z,16.17
2022-08-27T00:21:14.950Z,16.72
2022-08-27T00:22:23.730Z,16.95
2022-08-27T00:23:33.427Z,17.18
2022-08-27T00:24:48.728Z,16.89
2022-08-27T00:26:00.607Z,16.55
2022-08-27T00:27:09.213Z,16.35
2022-08-27T00:28:16.955Z,16.35
2022-08-27T00:29:27.668Z,16.17
2022-08-27T00:30:37.707Z,16.15
2022-08-27T00:31:52.970Z,16.20
2022-08-27T00:33:02.868Z,16.07
2022-08-27T00:34:13.004Z,16.08
2022-08-27T00:35:21.635Z,15.96
2022-08-27T00:36:30.433Z,15.58
2022-08-27T00:37:38.493Z,15.55
2022-08-27T00:38:47.623Z,15.75
2022-08-27T00:40:03.039Z,15.64
2022-08-27T00:41:13.797Z,15.18
2022-08-27T00:42:31.189Z,15.30
2022-08-27T00:43:59.978Z,15.78
2022-08-27T00:45:08.779Z,16.26
2022-08-27T00:46:42.866Z,16.74
2022-08-27T00:47:59.028Z,17.22
2022-08-27T00:49:27.667Z,17.18
2022-08-27T00:50:41.639Z,17.54
2022-08-27T00:52:00.223Z,17.42
2022-08-27T00:53:20.182Z,17.40
2022-08-27T00:54:29.005Z,17.81
2022-08-27T00:55:50.649Z,18.11
2022-08-27T00:56:59.864Z,17.58
2022-08-27T00:58:30.602Z,17.12
2022-08-27T00:59:38.642Z,17.11
2022-08-27T01:00:48.179Z,17.00
2022-08-27T01:02:14.091Z,17.97
2022-08-27T01:03:23.603Z,19.23
2022-08-27T01:04:34.301Z,20.06
2022-08-27T01:05:46.777Z,20.16
2022-08-27T01:06:55.213Z,19.84
2022-08-27T01:08:07.125Z,19.27
2022-08-27T01:09:17.838Z,19.22
2022-08-27T01:10:29.489Z,18.92
2022-08-27T01:11:37.811Z,18.24
2022-08-27T01:12:53.536Z,17.90
2022-08-27T01:14:04.815Z,17.39
2022-08-27T01:15:19.939Z,16.90
2022-08-27T01:16:31.987Z,16.64
2022-08-27T01:17:42.263Z,16.88
2022-08-27T01:18:53.913Z,17.82
2022-08-27T01:20:05.953Z,18.69
2022-08-27T01:21:41.783Z,19.83
2022-08-27T01:23:36.822Z,20.42
2022-08-27T01:24:49.903Z,20.04
2022-08-27T01:26:03.539Z,19.00
2022-08-27T01:27:17.009Z,19.01
2022-08-27T01:28:29.204Z,19.59
2022-08-27T01:29:49.504Z,19.88
2022-08-27T01:30:58.565Z,19.61
2022-08-27T01:32:11.624Z,19.14
2022-08-27T01:33:21.244Z,18.85
2022-08-27T01:34:31.026Z,18.67
2022-08-27T01:35:40.182Z,18.94
2022-08-27T01:36:49.428Z,19.08
2022-08-27T01:38:01.933Z,19.59
2022-08-27T01:39:12.925Z,20.21
2022-08-27T01:40:23.634Z,20.78
2022-08-27T01:41:31.979Z,21.29
2022-08-27T01:42:45.599Z,21.68
2022-08-27T01:43:55.676Z,21.91
2022-08-27T01:45:12.743Z,22.32
2022-08-27T01:46:31.443Z,22.75
2022-08-27T01:47:43.975Z,23.17
2022-08-27T01:49:00.419Z,23.42
2022-08-27T01:50:18.245Z,23.60
2022-08-27T01:51:27.809Z,23.63
2022-08-27T01:52:39.145Z,23.39
2022-08-27T01:53:47.953Z,23.59
2022-08-27T01:54:55.908Z,23.97
2022-08-27T01:56:04.148Z,24.14
2022-08-27T01:57:12.515Z,24.18
2022-08-27T01:58:22.975Z,24.53
2022-08-27T01:59:39.048Z,24.94
2022-08-27T02:00:56.100Z,25.37
2022-08-27T02:02:06.058Z,25.90
2022-08-27T02:03:19.514Z,26.46
2022-08-27T02:04:27.300Z,27.07
2022-08-27T02:05:44.725Z,27.64
2022-08-27T02:06:54.891Z,28.01
2022-08-27T02:08:05.673Z,28.27
2022-08-27T02:09:14.931Z,28.62
2022-08-27T02:10:30.146Z,29.10
2022-08-27T02:11:44.797Z,29.43
2022-08-27T02:12:57.870Z,29.97
2022-08-27T02:14:13.576Z,31.08
2022-08-27T02:15:25.848Z,31.53
2022-08-27T02:16:33.982Z,31.70
2022-08-27T02:17:50.165Z,32.31
2022-08-27T02:18:57.524Z,32.51
2022-08-27T02:20:06.168Z,32.95
2022-08-27T02:21:15.971Z,33.24
2022-08-27T02:22:24.988Z,33.40
2022-08-27T02:23:35.241Z,33.90
2022-08-27T02:24:45.556Z,34.08
2022-08-27T02:25:56.023Z,34.60
2022-08-27T02:27:04.069Z,34.83
2022-08-27T02:28:12.676Z,35.14
2022-08-27T02:29:20.325Z,35.60
2022-08-27T02:30:31.594Z,35.89
2022-08-27T02:31:44.112Z,36.04
2022-08-27T02:32:53.434Z,36.44
2022-08-27T02:34:02.716Z,36.61
2022-08-27T02:35:12.059Z,36.69
2022-08-27T02:36:19.331Z,37.00
2022-08-27T02:37:26.692Z,37.22
2022-08-27T02:38:35.617Z,37.62
2022-08-27T02:39:46.061Z,37.99
2022-08-27T02:40:56.545Z,38.14
2022-08-27T02:42:12.234Z,38.26
2022-08-27T02:43:25.234Z,38.47
2022-08-27T02:44:33.516Z,38.58
2022-08-27T02:45:44.593Z,39.01
2022-08-27T02:46:53.648Z,39.25
2022-08-27T02:48:01.849Z,39.61
2022-08-27T02:49:13.321Z,39.92
2022-08-27T02:50:22.882Z,39.95
2022-08-27T02:51:35.514Z,40.28
2022-08-27T02:52:47.045Z,40.50
2022-08-27T02:53:58.742Z,40.76
2022-08-27T02:55:07.083Z,40.80
2022-08-27T02:56:21.639Z,41.08
2022-08-27T02:57:29.909Z,41.48
2022-08-27T02:58:40.478Z,41.44
2022-08-27T02:59:49.808Z,41.80
2022-08-27T03:00:58.043Z,42.20
2022-08-27T03:02:06.797Z,42.22
2022-08-27T03:03:14.424Z,42.56
2022-08-27T03:04:25.361Z,42.77
2022-08-27T03:05:34.443Z,42.86
2022-08-27T03:06:45.349Z,42.87
2022-08-27T03:07:56.701Z,43.21
2022-08-27T03:09:05.949Z,43.53
2022-08-27T03:10:16.529Z,43.40
2022-08-27T03:11:25.681Z,43.38
2022-08-27T03:12:33.729Z,43.36
2022-08-27T03:13:42.289Z,43.72
2022-08-27T03:14:53.117Z,43.54
2022-08-27T03:16:04.119Z,43.51
2022-08-27T03:17:29.484Z,42.82
2022-08-27T03:18:37.450Z,42.76
2022-08-27T03:19:45.808Z,42.48
2022-08-27T03:20:57.037Z,42.47
2022-08-27T03:22:07.767Z,42.29
2022-08-27T03:23:17.759Z,42.44
2022-08-27T03:24:25.429Z,42.41
2022-08-27T03:25:34.951Z,42.55
2022-08-27T03:26:43.161Z,43.64
2022-08-27T03:28:04.526Z,43.77
2022-08-27T03:29:18.401Z,43.72
2022-08-27T03:30:29.272Z,43.97
2022-08-27T03:31:36.938Z,44.31
2022-08-27T03:32:47.315Z,44.24
2022-08-27T03:34:02.723Z,44.36
2022-08-27T03:35:14.179Z,44.63
2022-08-27T03:36:22.260Z,44.60
2022-08-27T03:37:31.873Z,44.92
2022-08-27T03:38:41.268Z,44.92
2022-08-27T03:39:49.937Z,45.25
2022-08-27T03:40:59.072Z,45.37
2022-08-27T03:42:09.790Z,45.17
2022-08-27T03:43:18.092Z,45.26
2022-08-27T03:44:26.589Z,45.93
2022-08-27T03:45:48.609Z,46.38
2022-08-27T03:47:03.466Z,46.09
2022-08-27T03:48:13.222Z,45.96
2022-08-27T03:49:21.944Z,45.68
2022-08-27T03:50:31.053Z,46.23
2022-08-27T03:51:39.246Z,46.77
2022-08-27T03:52:49.095Z,46.58
2022-08-27T03:53:57.839Z,46.61
2022-08-27T03:55:13.737Z,46.83
2022-08-27T03:56:22.702Z,47.47
2022-08-27T03:57:44.324Z,47.57
2022-08-27T03:58:55.593Z,47.64
2022-08-27T04:00:03.895Z,47.47
2022-08-27T04:01:21.847Z,48.02
2022-08-27T04:02:29.472Z,48.03
2022-08-27T04:03:37.174Z,48.28
2022-08-27T04:04:45.007Z,48.26
2022-08-27T04:05:56.602Z,48.03
2022-08-27T04:07:12.887Z,48.19
2022-08-27T04:08:36.709Z,48.92
2022-08-27T04:09:47.071Z,48.76
2022-08-27T04:10:57.560Z,48.72
2022-08-27T04:12:09.192Z,49.00
2022-08-27T04:13:18.067Z,49.15
2022-08-27T04:14:27.655Z,49.50
2022-08-27T04:15:40.535Z,48.93
2022-08-27T04:16:52.427Z,48.84
2022-08-27T04:18:03.715Z,49.18
2022-08-27T04:19:12.280Z,49.33
2022-08-27T04:20:36.111Z,49.76
2022-08-27T04:21:45.888Z,49.93
2022-08-27T04:22:54.769Z,49.81
2022-08-27T04:24:06.235Z,49.84
2022-08-27T04:25:17.453Z,49.70
2022-08-27T04:26:25.959Z,50.49
2022-08-27T04:27:33.985Z,50.72
2022-08-27T04:28:42.079Z,50.65
2022-08-27T04:30:00.650Z,50.98
2022-08-27T04:31:13.165Z,51.27
2022-08-27T04:32:27.511Z,50.90
2022-08-27T04:33:37.192Z,50.88
2022-08-27T04:34:45.631Z,50.64
2022-08-27T04:36:07.532Z,50.58
2022-08-27T04:37:14.760Z,50.50
2022-08-27T04:38:31.570Z,51.03
2022-08-27T04:39:41.324Z,51.15
2022-08-27T04:41:12.679Z,50.92
2022-08-27T04:42:22.488Z,51.09
2022-08-27T04:43:31.504Z,51.20
2022-08-27T04:44:38.686Z,51.42
2022-08-27T04:45:50.064Z,51.78
2022-08-27T04:47:01.688Z,52.03
2022-08-27T04:48:11.148Z,52.03
2022-08-27T04:49:19.027Z,52.20
2022-08-27T04:50:27.876Z,52.41
2022-08-27T04:51:37.171Z,52.68
2022-08-27T04:52:48.639Z,52.83
2022-08-27T04:53:59.943Z,52.86
2022-08-27T04:55:10.072Z,53.14
2022-08-27T04:56:22.598Z,53.26
2022-08-27T04:57:32.708Z,53.34
2022-08-27T04:58:41.936Z,53.43
2022-08-27T04:59:56.805Z,53.58
2022-08-27T05:01:04.914Z,53.36
2022-08-27T05:02:12.528Z,53.56
2022-08-27T05:03:27.663Z,53.91
2022-08-27T05:04:44.035Z,53.97
2022-08-27T05:05:56.627Z,54.50
2022-08-27T05:07:07.676Z,54.71
2022-08-27T05:08:17.498Z,54.65
2022-08-27T05:09:29.865Z,54.69
2022-08-27T05:10:44.525Z,54.68
2022-08-27T05:11:57.451Z,54.85
2022-08-27T05:13:11.659Z,54.94
2022-08-27T05:14:23.953Z,54.85
2022-08-27T05:15:39.243Z,55.07
2022-08-27T05:16:52.562Z,55.68
2022-08-27T05:18:02.324Z,55.84
2022-08-27T05:19:15.759Z,55.76
2022-08-27T05:20:26.296Z,56.01
2022-08-27T05:21:36.739Z,55.95
2022-08-27T05:22:45.588Z,55.78
2022-08-27T05:23:56.309Z,55.73
2022-08-27T05:25:07.456Z,55.87
2022-08-27T05:26:18.103Z,56.16
2022-08-27T05:27:26.847Z,56.48
2022-08-27T05:28:38.064Z,56.60
2022-08-27T05:29:46.748Z,56.73
2022-08-27T05:30:56.350Z,56.55
2022-08-27T05:32:05.076Z,56.31
2022-08-27T05:33:16.165Z,56.24
2022-08-27T05:34:27.196Z,56.22
2022-08-27T05:35:35.058Z,56.37
2022-08-27T05:36:48.737Z,56.48
2022-08-27T05:37:58.352Z,56.96
2022-08-27T05:39:07.474Z,57.03
2022-08-27T05:40:15.197Z,57.27
2022-08-27T05:41:33.823Z,57.53
2022-08-27T05:42:41.698Z,57.89
2022-08-27T05:44:10.418Z,58.12
2022-08-27T05:45:29.649Z,58.01
2022-08-27T05:46:37.831Z,58.03
2022-08-27T05:47:49.851Z,57.89
2022-08-27T05:49:00.772Z,57.85
2022-08-27T05:50:08.698Z,57.76
2022-08-27T05:51:25.499Z,57.61
2022-08-27T05:52:35.489Z,58.18
2022-08-27T05:53:47.226Z,58.30
2022-08-27T05:54:56.342Z,58.69
2022-08-27T05:56:03.972Z,59.22
2022-08-27T05:57:12.200Z,59.89
2022-08-27T05:58:39.433Z,59.64
2022-08-27T06:00:15.891Z,59.39
2022-08-27T06:01:24.230Z,59.47
2022-08-27T06:02:32.372Z,59.64
2022-08-27T06:03:40.040Z,59.49
2022-08-27T06:04:49.439Z,59.82
2022-08-27T06:06:07.488Z,59.83
2022-08-27T06:07:16.594Z,59.78
2022-08-27T06:08:25.484Z,59.86
2022-08-27T06:09:33.529Z,60.34
2022-08-27T06:10:44.494Z,59.97
2022-08-27T06:11:55.863Z,60.33
2022-08-27T06:13:05.737Z,60.43
2022-08-27T06:14:13.811Z,60.49
2022-08-27T06:15:21.286Z,60.39
2022-08-27T06:16:31.819Z,60.78
2022-08-27T06:17:38.784Z,60.82
2022-08-27T06:18:47.742Z,60.88
2022-08-27T06:19:55.841Z,60.63
2022-08-27T06:21:03.650Z,60.60
2022-08-27T06:22:12.385Z,60.56
2022-08-27T06:23:27.934Z,61.03
2022-08-27T06:24:40.880Z,61.12
2022-08-27T06:25:51.150Z,61.00
2022-08-27T06:27:00.987Z,61.04
2022-08-27T06:28:09.571Z,60.76
2022-08-27T06:29:17.984Z,61.04
2022-08-27T06:30:25.940Z,61.36
2022-08-27T06:31:40.485Z,61.23
2022-08-27T06:32:49.807Z,61.31
2022-08-27T06:34:07.619Z,61.23
2022-08-27T06:35:17.110Z,61.25
2022-08-27T06:36:27.292Z,61.34
2022-08-27T06:37:35.418Z,61.36
2022-08-27T06:38:44.618Z,61.20
2022-08-27T06:39:53.218Z,61.06
2022-08-27T06:41:01.797Z,60.87
2022-08-27T06:42:12.006Z,60.73
2022-08-27T06:43:24.538Z,60.59
2022-08-27T06:44:37.891Z,61.04
2022-08-27T06:45:47.233Z,60.91
2022-08-27T06:46:58.045Z,61.03
2022-08-27T06:48:09.168Z,61.76
2022-08-27T06:49:17.656Z,61.22
2022-08-27T06:50:27.380Z,61.16
2022-08-27T06:51:36.381Z,61.48
2022-08-27T06:52:43.553Z,61.56
2022-08-27T06:53:52.072Z,61.65
2022-08-27T06:54:59.541Z,61.66
2022-08-27T06:56:06.909Z,61.61
2022-08-27T06:57:16.848Z,61.55
2022-08-27T06:58:27.529Z,61.47
2022-08-27T06:59:38.788Z,61.28
2022-08-27T07:00:49.098Z,61.72
2022-08-27T07:01:58.245Z,61.52
2022-08-27T07:03:07.911Z,61.48
2022-08-27T07:04:19.901Z,61.72
2022-08-27T07:05:29.811Z,61.92
2022-08-27T07:06:37.083Z,61.91
2022-08-27T07:07:48.941Z,61.84
2022-08-27T07:08:58.442Z,61.94
2022-08-27T07:10:06.725Z,61.97
2022-08-27T07:11:16.264Z,62.08
2022-08-27T07:12:24.434Z,62.18
2022-08-27T07:13:39.971Z,62.53
2022-08-27T07:14:49.719Z,62.69
2022-08-27T07:15:59.374Z,63.21
2022-08-27T07:17:10.853Z,62.81
2022-08-27T07:18:19.170Z,62.86
2022-08-27T07:19:41.459Z,62.86
2022-08-27T07:20:51.295Z,63.21
2022-08-27T07:22:01.887Z,63.07
2022-08-27T07:23:11.149Z,63.03
2022-08-27T07:24:18.692Z,63.23
2022-08-27T07:25:30.167Z,63.24
2022-08-27T07:26:39.113Z,63.12
2022-08-27T07:27:49.120Z,63.30
2022-08-27T07:28:57.990Z,63.22
2022-08-27T07:30:08.632Z,63.45
2022-08-27T07:31:19.365Z,63.40
2022-08-27T07:32:30.514Z,63.72
2022-08-27T07:33:45.988Z,63.89
2022-08-27T07:35:03.003Z,64.05
2022-08-27T07:36:13.938Z,64.41
2022-08-27T07:37:23.647Z,64.47
2022-08-27T07:38:35.117Z,64.48
2022-08-27T07:39:45.983Z,64.40
2022-08-27T07:40:55.388Z,64.33
2022-08-27T07:42:22.086Z,64.56
2022-08-27T07:43:50.509Z,64.60
2022-08-27T07:45:05.113Z,64.82
2022-08-27T07:46:15.474Z,64.96
2022-08-27T07:47:23.338Z,64.73
2022-08-27T07:48:36.488Z,64.83
2022-08-27T07:49:45.617Z,65.17
2022-08-27T07:50:54.753Z,64.89
2022-08-27T07:52:04.506Z,64.92
2022-08-27T07:53:14.818Z,64.77
2022-08-27T07:54:25.369Z,65.02
2022-08-27T07:55:34.067Z,65.13
2022-08-27T07:56:44.197Z,65.29
2022-08-27T07:58:11.599Z,65.24
2022-08-27T07:59:22.021Z,65.06
2022-08-27T08:00:32.617Z,65.08
2022-08-27T08:01:44.670Z,64.86
2022-08-27T08:02:54.232Z,64.64
2022-08-27T08:04:05.535Z,64.65
2022-08-27T08:05:17.898Z,64.74
2022-08-27T08:06:28.639Z,64.48
2022-08-27T08:07:40.256Z,64.56
2022-08-27T08:08:48.652Z,64.75
2022-08-27T08:09:57.335Z,64.77
2022-08-27T08:11:05.710Z,64.88
2022-08-27T08:12:13.833Z,64.98
2022-08-27T08:13:20.945Z,65.00
2022-08-27T08:14:28.314Z,64.84
2022-08-27T08:15:39.114Z,64.66
2022-08-27T08:16:47.554Z,64.61
2022-08-27T08:17:59.399Z,64.53
2022-08-27T08:19:07.789Z,64.56
2022-08-27T08:20:27.213Z,64.56
2022-08-27T08:21:45.499Z,64.54
2022-08-27T08:22:57.106Z,64.70
2022-08-27T08:24:06.398Z,64.78
2022-08-27T08:25:17.671Z,65.23
2022-08-27T08:26:25.740Z,65.22
2022-08-27T08:27:34.087Z,65.22
2022-08-27T08:28:43.116Z,64.83
2022-08-27T08:29:52.870Z,64.74
2022-08-27T08:31:01.643Z,64.70
2022-08-27T08:32:10.172Z,64.67
2022-08-27T08:33:18.594Z,64.56
2022-08-27T08:34:27.820Z,64.48
2022-08-27T08:35:40.546Z,64.64
2022-08-27T08:36:54.942Z,64.68
2022-08-27T08:38:04.963Z,64.70
2022-08-27T08:39:13.751Z,64.85
2022-08-27T08:40:49.068Z,64.79
2022-08-27T08:42:01.833Z,64.84
2022-08-27T08:43:34.610Z,64.87
2022-08-27T08:44:51.840Z,65.38
2022-08-27T08:46:23.847Z,65.22
2022-08-27T08:47:34.371Z,64.87
2022-08-27T08:48:44.138Z,64.95
2022-08-27T08:49:59.720Z,64.97
2022-08-27T08:51:14.050Z,65.22
2022-08-27T08:52:52.609Z,65.02
2022-08-27T08:54:20.316Z,64.97
2022-08-27T08:55:49.137Z,65.28
2022-08-27T08:57:32.110Z,65.52
2022-08-27T08:58:52.982Z,65.44
2022-08-27T09:00:15.219Z,65.63
2022-08-27T09:01:26.336Z,65.58
2022-08-27T09:02:34.422Z,65.56
2022-08-27T09:03:44.169Z,65.78
2022-08-27T09:04:52.133Z,65.99
2022-08-27T09:06:43.926Z,66.11
2022-08-27T09:08:21.260Z,66.25
2022-08-27T09:09:56.080Z,66.20
2022-08-27T09:11:12.958Z,66.12
2022-08-27T09:12:26.871Z,66.44
2022-08-27T09:13:45.227Z,66.92
2022-08-27T09:15:28.347Z,67.00
2022-08-27T09:16:37.978Z,67.03
2022-08-27T09:17:45.908Z,67.12
2022-08-27T09:18:54.009Z,67.09
2022-08-27T09:20:05.383Z,66.90
2022-08-27T09:21:35.294Z,66.88
2022-08-27T09:23:04.533Z,67.05
2022-08-27T09:24:43.941Z,67.21
2022-08-27T09:25:51.279Z,67.42
2022-08-27T09:26:59.050Z,67.63
2022-08-27T09:28:33.862Z,67.69
2022-08-27T09:29:48.790Z,67.62
2022-08-27T09:30:59.683Z,67.37
2022-08-27T09:32:08.818Z,67.55
2022-08-27T09:33:15.896Z,68.05
2022-08-27T09:34:24.401Z,68.07
2022-08-27T09:35:43.703Z,68.16
2022-08-27T09:36:56.777Z,67.98
2022-08-27T09:38:05.940Z,67.96
2022-08-27T09:39:15.203Z,67.87
2022-08-27T09:40:48.970Z,67.99
2022-08-27T09:41:57.714Z,67.91
2022-08-27T09:43:19.802Z,67.85
2022-08-27T09:44:27.276Z,67.81
2022-08-27T09:45:37.310Z,68.05
2022-08-27T09:47:04.669Z,68.39
2022-08-27T09:48:19.309Z,68.40
2022-08-27T09:49:28.139Z,68.51
2022-08-27T09:50:51.149Z,68.74
2022-08-27T09:52:01.425Z,68.70
2022-08-27T09:53:27.925Z,68.67
2022-08-27T09:54:48.456Z,68.73
2022-08-27T09:56:06.017Z,68.52
2022-08-27T09:57:14.614Z,68.35
2022-08-27T09:58:31.956Z,68.32
2022-08-27T09:59:57.904Z,68.33
2022-08-27T10:01:17.692Z,68.64
2022-08-27T10:02:26.804Z,68.95
2022-08-27T10:03:33.840Z,69.10
2022-08-27T10:04:51.374Z,69.19
2022-08-27T10:06:00.809Z,69.37
2022-08-27T10:07:17.726Z,69.50
2022-08-27T10:08:32.987Z,69.40
2022-08-27T10:09:42.141Z,69.58
2022-08-27T10:11:02.059Z,69.71
2022-08-27T10:12:16.080Z,69.86
2022-08-27T10:13:26.362Z,69.78
2022-08-27T10:14:42.690Z,69.85
2022-08-27T10:16:22.243Z,70.06
2022-08-27T10:17:37.396Z,70.20
2022-08-27T10:19:06.084Z,70.14
2022-08-27T10:20:47.706Z,70.17
2022-08-27T10:22:23.070Z,70.04
2022-08-27T10:23:50.303Z,69.94
2022-08-27T10:25:26.461Z,70.34
2022-08-27T10:26:42.472Z,70.45
2022-08-27T10:28:29.660Z,70.35
2022-08-27T10:30:02.621Z,70.60
2022-08-27T10:31:14.023Z,70.52
2022-08-27T10:32:57.359Z,70.64
2022-08-27T10:34:13.587Z,70.54
2022-08-27T10:35:47.880Z,70.59
2022-08-27T10:37:23.978Z,70.53
2022-08-27T10:38:31.842Z,70.62
2022-08-27T10:40:11.502Z,70.71
2022-08-27T10:41:25.288Z,70.88
2022-08-27T10:42:42.484Z,70.72
2022-08-27T10:44:01.967Z,70.46
2022-08-27T10:45:15.257Z,70.18
2022-08-27T10:46:58.457Z,70.15
2022-08-27T10:48:13.587Z,70.27
2022-08-27T10:49:39.480Z,70.00
2022-08-27T10:50:59.267Z,69.79
2022-08-27T10:52:18.198Z,69.72
2022-08-27T10:53:36.782Z,69.80
2022-08-27T10:54:49.570Z,69.96
2022-08-27T10:56:16.252Z,70.26
2022-08-27T10:57:53.908Z,70.54
2022-08-27T10:59:30.731Z,70.84
2022-08-27T11:00:57.501Z,70.79
2022-08-27T11:02:25.334Z,70.67
2022-08-27T11:03:36.911Z,70.63
2022-08-27T11:05:00.834Z,71.05
2022-08-27T11:06:24.706Z,71.24
2022-08-27T11:07:43.865Z,71.27
2022-08-27T11:09:07.683Z,71.37
2022-08-27T11:10:32.668Z,71.69
2022-08-27T11:12:15.928Z,71.52
2022-08-27T11:13:35.439Z,71.48
2022-08-27T11:15:27.409Z,71.42
2022-08-27T11:16:45.622Z,71.36
2022-08-27T11:18:17.928Z,71.45
2022-08-27T11:20:14.122Z,71.64
2022-08-27T11:21:42.134Z,71.48
2022-08-27T11:23:19.887Z,71.84
2022-08-27T11:24:39.567Z,72.39
2022-08-27T11:25:54.667Z,72.81
2022-08-27T11:27:08.657Z,72.78
2022-08-27T11:28:20.185Z,72.63
2022-08-27T11:30:02.134Z,72.50
2022-08-27T11:31:16.439Z,72.34
2022-08-27T11:32:28.295Z,72.53
2022-08-27T11:34:00.936Z,72.61
2022-08-27T11:35:45.511Z,72.73
2022-08-27T11:37:05.852Z,72.81
2022-08-27T11:38:41.539Z,72.84
2022-08-27T11:40:16.392Z,73.04
2022-08-27T11:42:04.504Z,73.05
2022-08-27T11:43:16.702Z,73.01
2022-08-27T11:44:26.017Z,73.42
2022-08-27T11:45:40.053Z,73.72
2022-08-27T11:46:53.206Z,73.77
2022-08-27T11:48:03.547Z,73.75
2022-08-27T11:49:11.545Z,73.76
2022-08-27T11:50:21.007Z,73.85
2022-08-27T11:51:35.455Z,73.98
2022-08-27T11:52:44.518Z,74.22
2022-08-27T11:54:02.297Z,73.92
2022-08-27T11:55:16.530Z,73.66
2022-08-27T11:56:46.323Z,73.37
2022-08-27T11:58:19.935Z,73.32
2022-08-27T11:59:30.684Z,73.21
2022-08-27T12:00:43.398Z,73.79
2022-08-27T12:01:54.362Z,73.63
2022-08-27T12:03:10.961Z,73.43
2022-08-27T12:04:33.359Z,73.42
2022-08-27T12:05:46.345Z,73.45
2022-08-27T12:07:23.491Z,73.44
2022-08-27T12:08:35.400Z,73.45
2022-08-27T12:10:21.813Z,73.31
2022-08-27T12:11:33.980Z,73.27
2022-08-27T12:13:09.107Z,73.02
2022-08-27T12:14:53.315Z,73.31
2022-08-27T12:16:01.320Z,73.55
2022-08-27T12:17:56.423Z,73.49
2022-08-27T12:19:21.878Z,73.68
2022-08-27T12:21:06.107Z,73.96
2022-08-27T12:23:01.673Z,74.40
2022-08-27T12:24:34.252Z,74.49
2022-08-27T12:25:42.041Z,74.31
2022-08-27T12:27:34.730Z,74.37
2022-08-27T12:28:43.390Z,74.57
2022-08-27T12:30:11.632Z,74.71
2022-08-27T12:31:23.989Z,74.90
2022-08-27T12:32:41.840Z,75.00
2022-08-27T12:33:53.329Z,75.24
2022-08-27T12:35:18.730Z,75.34
2022-08-27T12:36:28.734Z,75.49
2022-08-27T12:37:41.564Z,75.66
2022-08-27T12:38:55.312Z,75.68
2022-08-27T12:40:13.750Z,75.46
2022-08-27T12:41:44.249Z,75.59
2022-08-27T12:43:06.222Z,75.56
2022-08-27T12:44:16.729Z,75.78
2022-08-27T12:45:26.074Z,76.10
2022-08-27T12:46:34.234Z,76.28
2022-08-27T12:47:47.679Z,76.47
2022-08-27T12:49:36.103Z,76.67
2022-08-27T12:50:39.679Z,76.68
2022-08-27T12:51:47.819Z,76.88
2022-08-27T12:53:25.278Z,76.91
2022-08-27T12:55:02.374Z,76.74
2022-08-27T12:56:47.407Z,76.57
2022-08-27T12:58:17.918Z,76.41
2022-08-27T12:59:52.229Z,76.40
2022-08-27T13:01:32.621Z,76.30
2022-08-27T13:02:58.466Z,76.42
2022-08-27T13:04:07.721Z,76.55
2022-08-27T13:05:16.958Z,76.68
2022-08-27T13:06:33.932Z,77.05
2022-08-27T13:07:45.160Z,77.04
2022-08-27T13:09:00.810Z,77.14
2022-08-27T13:10:31.265Z,77.10
2022-08-27T13:11:50.612Z,77.16
2022-08-27T13:13:13.898Z,77.20
2022-08-27T13:14:23.894Z,77.02
2022-08-27T13:15:31.474Z,77.16
2022-08-27T13:16:41.147Z,77.15
2022-08-27T13:17:54.284Z,77.18
2022-08-27T13:19:06.137Z,77.07
2022-08-27T13:20:27.012Z,77.23
2022-08-27T13:21:37.312Z,77.28
2022-08-27T13:22:45.777Z,77.32
2022-08-27T13:24:04.019Z,77.37
2022-08-27T13:25:31.697Z,77.47
2022-08-27T13:26:42.418Z,77.35
2022-08-27T13:28:15.398Z,77.17
2022-08-27T13:29:23.489Z,77.11
2022-08-27T13:30:35.673Z,77.09
2022-08-27T13:31:44.935Z,77.05
2022-08-27T13:32:55.312Z,77.11
2022-08-27T13:34:06.266Z,77.32
2022-08-27T13:35:13.758Z,77.24
2022-08-27T13:36:37.953Z,77.37
2022-08-27T13:37:54.462Z,77.33
2022-08-27T13:39:07.812Z,77.39
2022-08-27T13:40:38.027Z,77.41
2022-08-27T13:41:47.829Z,77.59
2022-08-27T13:42:56.697Z,77.35
2022-08-27T13:44:25.509Z,77.08
2022-08-27T13:45:33.919Z,76.64
2022-08-27T13:47:09.509Z,76.18
2022-08-27T13:48:22.418Z,75.99
2022-08-27T13:49:39.966Z,76.15
2022-08-27T13:50:57.705Z,76.25
2022-08-27T13:52:33.716Z,76.09
2022-08-27T13:54:10.805Z,75.35
2022-08-27T13:55:19.462Z,74.62
2022-08-27T13:56:33.002Z,73.79
2022-08-27T13:57:48.096Z,73.13
2022-08-27T13:58:58.445Z,72.45
2022-08-27T14:00:17.843Z,71.85
2022-08-27T14:01:33.083Z,71.29
2022-08-27T14:02:55.570Z,70.70
2022-08-27T14:04:10.214Z,70.41
2022-08-27T14:05:32.443Z,70.01
2022-08-27T14:06:48.414Z,69.60
2022-08-27T14:08:00.719Z,69.16
2022-08-27T14:09:27.707Z,68.31
2022-08-27T14:10:42.411Z,67.78
2022-08-27T14:12:07.611Z,67.27
2022-08-27T14:13:23.378Z,66.79
2022-08-27T14:14:32.131Z,66.06
2022-08-27T14:15:51.149Z,65.82
2022-08-27T14:17:03.427Z,65.21
2022-08-27T14:18:57.435Z,65.13
2022-08-27T14:20:04.401Z,65.42
2022-08-27T14:21:17.246Z,65.41
2022-08-27T14:22:24.825Z,65.46
2022-08-27T14:23:33.345Z,64.53
2022-08-27T14:24:40.948Z,65.14
2022-08-27T14:25:48.146Z,65.11
2022-08-27T14:26:56.477Z,64.46
2022-08-27T14:28:05.367Z,63.87
2022-08-27T14:29:13.114Z,64.24
2022-08-27T14:30:21.950Z,62.84
2022-08-27T14:31:38.805Z,62.70
2022-08-27T14:32:50.936Z,62.55
2022-08-27T14:34:07.468Z,60.76
2022-08-27T14:35:14.592Z,59.14
2022-08-27T14:36:34.161Z,58.71
2022-08-27T14:37:42.322Z,57.83
2022-08-27T14:38:52.081Z,56.58
2022-08-27T14:40:02.158Z,56.35
2022-08-27T14:41:11.260Z,56.09
2022-08-27T14:42:21.736Z,55.70
2022-08-27T14:43:34.090Z,55.83
2022-08-27T14:44:43.083Z,55.49
2022-08-27T14:45:52.007Z,55.51
2022-08-27T14:47:01.846Z,55.16
2022-08-27T14:48:28.868Z,54.79
2022-08-27T14:49:39.693Z,54.17
2022-08-27T14:50:49.470Z,53.12
2022-08-27T14:51:57.038Z,52.94
2022-08-27T14:53:04.841Z,52.62
2022-08-27T14:54:12.683Z,52.30
2022-08-27T14:55:23.063Z,51.75
2022-08-27T14:56:30.587Z,51.50
2022-08-27T14:57:40.600Z,51.99
2022-08-27T14:58:47.925Z,52.02
2022-08-27T14:59:56.644Z,51.16
2022-08-27T15:01:05.566Z,50.76
2022-08-27T15:02:14.950Z,50.70
2022-08-27T15:03:22.405Z,50.72
2022-08-27T15:04:29.736Z,50.81
2022-08-27T15:05:40.142Z,50.25
2022-08-27T15:06:47.559Z,50.35
2022-08-27T15:07:57.548Z,50.39
2022-08-27T15:09:06.542Z,50.01
2022-08-27T15:10:13.423Z,49.73
2022-08-27T15:11:30.187Z,49.64
2022-08-27T15:12:37.644Z,49.17
2022-08-27T15:13:47.014Z,49.30
2022-08-27T15:14:54.351Z,49.13
2022-08-27T15:16:03.798Z,48.90
2022-08-27T15:17:15.304Z,48.78
2022-08-27T15:18:40.249Z,49.15
2022-08-27T15:19:48.420Z,48.43
2022-08-27T15:20:57.348Z,47.96
2022-08-27T15:22:28.723Z,47.40
2022-08-27T15:23:38.610Z,47.43
2022-08-27T15:24:52.824Z,47.37
2022-08-27T15:26:04.814Z,46.64
2022-08-27T15:27:13.206Z,46.93
2022-08-27T15:28:20.988Z,46.97
2022-08-27T15:29:29.822Z,46.85
2022-08-27T15:30:39.472Z,46.44
2022-08-27T15:31:50.570Z,46.44
2022-08-27T15:32:59.214Z,45.98
2022-08-27T15:34:09.296Z,46.32
2022-08-27T15:35:21.451Z,46.55
2022-08-27T15:36:28.880Z,46.21
2022-08-27T15:37:37.990Z,45.63
2022-08-27T15:38:48.858Z,45.35
2022-08-27T15:39:58.871Z,44.85
2022-08-27T15:41:07.459Z,44.79
2022-08-27T15:42:17.345Z,44.97
2022-08-27T15:43:25.198Z,45.27
2022-08-27T15:44:33.174Z,44.44
2022-08-27T15:45:41.458Z,44.14
2022-08-27T15:46:53.099Z,44.00
2022-08-27T15:48:02.521Z,43.46
2022-08-27T15:49:13.723Z,43.37
2022-08-27T15:50:23.544Z,43.14
2022-08-27T15:51:33.142Z,43.31
2022-08-27T15:52:41.524Z,43.55
2022-08-27T15:53:48.927Z,43.81
2022-08-27T15:54:56.636Z,43.89
2022-08-27T15:56:09.524Z,43.76
2022-08-27T15:57:18.958Z,43.71
2022-08-27T15:58:29.319Z,43.17
2022-08-27T15:59:37.400Z,42.32
2022-08-27T16:00:47.906Z,41.65